Maersk Klaipeda — VRGL5 — position and weather

sailwx.info

Track history (hours):
 
Tides and Currents Weather Stations Pressure Air Temp Water Temp Dewpoint Dewpoint Depression Visibility Wind Speed Wind Dir Waves Ship Positions

Maersk Klaipeda

Last reported at 2017-Sep-05 07:04 UTC. Time now 2017-Sep-22 04:31 UTC.
Position N 35°55' E 032°44'.
Warning: this ship's position is 16 days out of date.

Length 300 m; draft 13.1 m.

Type: Ship (hazmat cat A). MMSI: 477728600.

Date/timePositionNaut miles runAvg speedWind from/ knotsBaromVisibWave heightAir tempDewpointWater temp
2017-Sep-05 07:04N 35°55' E 032°44'120.2
2017-Sep-05 07:01N 35°55' E 032°43'1020.3
2017-Sep-05 06:30N 35°55' E 032°30'1020.5
2017-Sep-05 06:00N 35°54' E 032°18'1020.5
2017-Sep-05 05:30N 35°54' E 032°05'1020.5
2017-Sep-05 05:01N 35°54' E 031°53'1020.7
2017-Sep-05 04:31N 35°54' E 031°40'1121.1
2017-Sep-05 04:01N 35°53' E 031°27'1121.1
2017-Sep-05 03:31N 35°53' E 031°14'1121.0
2017-Sep-05 03:01N 35°53' E 031°01'1021.0
2017-Sep-05 02:31N 35°53' E 030°48'1121.0
2017-Sep-05 02:01N 35°52' E 030°35'24418.7
2017-Sep-04 13:01N 37°28' E 025°56'020.8
2017-Sep-04 13:00N 37°28' E 025°56'248 8.1
2017-Sep-03 06:32N 40°55' E 028°51'117.0
2017-Sep-03 06:27N 40°56' E 028°53'613.6
2017-Sep-03 05:59N 40°60' E 028°59'611.4
2017-Sep-03 05:28N 41°05' E 029°03'511.1
2017-Sep-03 04:59N 41°10' E 029°04'5 9.4
2017-Sep-03 04:30N 41°14' E 029°08'7 8.0
2017-Sep-03 03:39N 41°19' E 029°02'6 1.3
2017-Sep-02 22:50N 41°23' E 028°56'1 1.4
2017-Sep-02 22:29N 41°23' E 028°55'3 5.9
2017-Sep-02 21:59N 41°24' E 028°52'0 0.6
2017-Sep-02 21:30N 41°25' E 028°52'0 0.7
2017-Sep-02 21:00N 41°25' E 028°52'0 0.7
2017-Sep-02 20:30N 41°25' E 028°53'0 0.6
2017-Sep-02 20:00N 41°25' E 028°53'0 0.7
2017-Sep-02 19:30N 41°24' E 028°54'0 0.7
2017-Sep-02 18:58N 41°25' E 028°54'1 2.8
2017-Sep-02 18:30N 41°26' E 028°55'10 8.1
2017-Sep-02 17:19N 41°33' E 029°04'620.0
2017-Sep-02 17:00N 41°39' E 029°04'1020.5
2017-Sep-02 16:30N 41°49' E 029°04'1020.2
2017-Sep-02 16:00N 41°59' E 029°04'1020.1
2017-Sep-02 15:30N 42°09' E 029°04'1019.9
2017-Sep-02 15:00N 42°19' E 029°04'1019.9
2017-Sep-02 14:30N 42°29' E 029°04'1019.9
2017-Sep-02 14:00N 42°39' E 029°03'1019.8
2017-Sep-02 13:30N 42°49' E 029°03'1019.8
2017-Sep-02 13:00N 42°59' E 029°03'1019.9
2017-Sep-02 12:30N 43°09' E 029°03'1020.0
2017-Sep-02 12:00N 43°19' E 029°03'1019.8
2017-Sep-02 11:30N 43°29' E 029°03'1019.6
2017-Sep-02 11:00N 43°39' E 029°03'1019.2
2017-Sep-02 10:30N 43°48' E 029°02'1019.5
2017-Sep-02 10:00N 43°56' E 028°53'918.7
2017-Sep-02 09:30N 44°03' E 028°44'5 0.2
2017-Sep-01 06:33N 44°06' E 028°40'0 0.2
2017-Sep-01 06:30N 44°06' E 028°40'1 1.4
2017-Sep-01 06:00N 44°06' E 028°41'2 4.4
2017-Sep-01 05:30N 44°05' E 028°43'4 7.5
2017-Sep-01 05:00N 44°02' E 028°47'5 9.0
2017-Sep-01 04:30N 43°60' E 028°52'4 8.5
2017-Sep-01 04:00N 44°01' E 028°57'0 0.6
2017-Sep-01 03:30N 44°01' E 028°58'0 0.4
2017-Sep-01 03:00N 44°01' E 028°58'0 0.4
2017-Sep-01 02:30N 44°01' E 028°58'0 0.8
2017-Sep-01 02:00N 44°01' E 028°59'0 0.8
2017-Sep-01 01:30N 44°01' E 028°59'0 0.7
2017-Sep-01 01:00N 44°01' E 028°60'0 0.6
2017-Sep-01 00:30N 44°00' E 029°00'0 0.2
2017-Sep-01 00:00N 44°00' E 029°00'0 0.7
2017-Aug-31 23:30N 44°00' E 029°01'1 2.8
2017-Aug-31 23:00N 44°01' E 029°02'4 9.0
2017-Aug-31 22:30N 44°04' E 029°07'5 9.8
2017-Aug-31 22:00N 44°07' E 029°12'510.0
2017-Aug-31 21:30N 44°10' E 029°18'5 9.8
2017-Aug-31 21:00N 44°12' E 029°24'5 9.8
2017-Aug-31 20:30N 44°15' E 029°30'133 9.8
2017-Aug-31 06:58N 46°13' E 030°57'1018.0
2017-Aug-31 06:24N 46°18' E 030°45'4 4.3
2017-Aug-31 05:29N 46°20' E 030°40'7 0.2
2017-Aug-29 16:32N 46°18' E 030°49'014.9
2017-Aug-29 16:30N 46°17' E 030°49'612.9
2017-Aug-29 16:00N 46°24' E 030°51'713.8
2017-Aug-29 15:30N 46°30' E 030°46'1 1.2
2017-Aug-29 15:00N 46°29' E 030°46'0 0.1
2017-Aug-29 14:22N 46°29' E 030°46'0 0.0
2017-Aug-29 13:55N 46°29' E 030°46'0 0.0
2017-Aug-29 13:28N 46°29' E 030°46'0 0.0
2017-Aug-29 12:58N 46°29' E 030°46'0 0.0
2017-Aug-29 12:25N 46°29' E 030°46'0 0.0
2017-Aug-29 11:28N 46°29' E 030°46'0 0.0
2017-Aug-29 10:55N 46°29' E 030°46'0 0.0
2017-Aug-29 10:04N 46°29' E 030°46'0 0.0
2017-Aug-29 09:55N 46°29' E 030°46'0 0.0
2017-Aug-29 08:46N 46°29' E 030°46'0 0.0
2017-Aug-29 07:43N 46°29' E 030°46'0 0.0
2017-Aug-29 07:25N 46°29' E 030°46'0 0.0
2017-Aug-29 06:07N 46°29' E 030°46'0 0.0
2017-Aug-29 05:43N 46°29' E 030°46'0 0.0
2017-Aug-29 05:28N 46°29' E 030°46'0 0.0
2017-Aug-29 04:52N 46°29' E 030°46'0 0.0
2017-Aug-29 04:28N 46°29' E 030°46'0 0.0
2017-Aug-29 03:58N 46°29' E 030°46'0 0.7
2017-Aug-29 03:30N 46°30' E 030°46'2 4.2
2017-Aug-29 03:00N 46°29' E 030°49'3 6.0
2017-Aug-29 02:30N 46°27' E 030°51'1015.4
2017-Aug-29 01:53N 46°18' E 030°56'29215.9
2017-Aug-28 07:28N 44°24' E 037°19'919.1
2017-Aug-28 07:00N 44°28' E 037°30'1019.4
2017-Aug-28 06:31N 44°32' E 037°42'816.9
2017-Aug-28 06:00N 44°39' E 037°50'4 8.6
2017-Aug-28 05:30N 44°43' E 037°48'1 2.0
2017-Aug-28 05:00N 44°44' E 037°47'0 0.0
2017-Aug-28 04:30N 44°44' E 037°47'0 0.0
2017-Aug-28 04:00N 44°44' E 037°47'0 0.0
2017-Aug-28 03:30N 44°44' E 037°47'0 0.0
2017-Aug-28 03:00N 44°44' E 037°47'0 0.0
2017-Aug-28 02:30N 44°44' E 037°47'0 0.0
2017-Aug-28 02:00N 44°44' E 037°47'0 0.0
2017-Aug-28 01:30N 44°44' E 037°47'0 0.0
2017-Aug-28 01:00N 44°44' E 037°47'0 0.0
2017-Aug-28 00:30N 44°44' E 037°47'0 0.0
2017-Aug-28 00:00N 44°44' E 037°47'0 0.0
2017-Aug-27 23:30N 44°44' E 037°47'0 0.0
2017-Aug-27 23:00N 44°44' E 037°47'0 0.0
2017-Aug-27 22:30N 44°44' E 037°47'0 0.0
2017-Aug-27 22:00N 44°44' E 037°47'0 0.0
2017-Aug-27 21:30N 44°44' E 037°47'0 0.0
2017-Aug-27 21:00N 44°44' E 037°47'0 0.0
2017-Aug-27 20:30N 44°44' E 037°47'0 0.0
2017-Aug-27 20:00N 44°44' E 037°47'0 0.0
2017-Aug-27 19:30N 44°44' E 037°47'0 0.0
2017-Aug-27 19:00N 44°44' E 037°47'0 0.0
2017-Aug-27 18:30N 44°44' E 037°47'0 0.0
2017-Aug-27 18:00N 44°44' E 037°47'0 0.0
2017-Aug-27 17:30N 44°44' E 037°47'0 0.0
2017-Aug-27 17:00N 44°44' E 037°47'0 0.0
2017-Aug-27 16:30N 44°44' E 037°47'0 0.0
2017-Aug-27 16:00N 44°44' E 037°47'0 0.0
2017-Aug-27 15:12N 44°44' E 037°47'0 0.0
2017-Aug-27 15:00N 44°44' E 037°47'0 0.0
2017-Aug-27 14:30N 44°44' E 037°47'0 0.0
2017-Aug-27 14:00N 44°44' E 037°47'0 0.0
2017-Aug-27 13:30N 44°44' E 037°47'0 0.0
2017-Aug-27 13:00N 44°44' E 037°47'0 0.0
2017-Aug-27 12:30N 44°44' E 037°47'0 0.0
2017-Aug-27 12:00N 44°44' E 037°47'0 0.0
2017-Aug-27 11:30N 44°44' E 037°47'0 0.0
2017-Aug-27 11:00N 44°44' E 037°47'0 0.0
2017-Aug-27 10:30N 44°44' E 037°47'0 0.0
2017-Aug-27 10:00N 44°44' E 037°47'0 0.0
2017-Aug-27 09:30N 44°44' E 037°47'0 0.0
2017-Aug-27 09:00N 44°44' E 037°47'0 0.0
2017-Aug-27 08:30N 44°44' E 037°47'0 0.0
2017-Aug-27 08:00N 44°44' E 037°47'0 0.0
2017-Aug-27 07:30N 44°44' E 037°47'0 0.0
2017-Aug-27 07:00N 44°44' E 037°47'0 0.0
2017-Aug-27 06:30N 44°44' E 037°47'0 0.0
2017-Aug-27 06:00N 44°44' E 037°47'0 0.0
2017-Aug-27 05:30N 44°44' E 037°47'0 0.0
2017-Aug-27 05:00N 44°44' E 037°47'0 0.0
2017-Aug-27 04:30N 44°44' E 037°47'0 0.0
2017-Aug-27 04:00N 44°44' E 037°47'0 0.0
2017-Aug-27 03:29N 44°44' E 037°47'0 0.0
2017-Aug-27 02:59N 44°44' E 037°47'0 0.0
2017-Aug-27 02:29N 44°44' E 037°47'0 0.0
2017-Aug-27 01:59N 44°44' E 037°47'0 0.0
2017-Aug-27 01:29N 44°44' E 037°47'0 0.0
2017-Aug-27 00:59N 44°44' E 037°47'0 0.0
2017-Aug-27 00:29N 44°44' E 037°47'0 0.0
2017-Aug-26 23:59N 44°44' E 037°47'0 0.0
2017-Aug-26 23:29N 44°44' E 037°47'0 0.0
2017-Aug-26 22:59N 44°44' E 037°47'0 0.0
2017-Aug-26 22:29N 44°44' E 037°47'0 0.0
2017-Aug-26 21:59N 44°44' E 037°47'0 0.0
2017-Aug-26 21:29N 44°44' E 037°47'0 0.0
2017-Aug-26 20:59N 44°44' E 037°47'0 0.0
2017-Aug-26 20:29N 44°44' E 037°47'0 0.0
2017-Aug-26 19:59N 44°44' E 037°47'0 0.0
2017-Aug-26 19:29N 44°44' E 037°47'0 0.0
2017-Aug-26 18:59N 44°44' E 037°47'0 0.0
2017-Aug-26 18:29N 44°44' E 037°47'0 0.0
2017-Aug-26 17:59N 44°44' E 037°47'0 0.0
2017-Aug-26 17:29N 44°44' E 037°47'0 0.0
2017-Aug-26 16:59N 44°44' E 037°47'0 0.0
2017-Aug-26 16:29N 44°44' E 037°47'0 0.0
2017-Aug-26 15:59N 44°44' E 037°47'0 0.0
2017-Aug-26 15:29N 44°44' E 037°47'0 0.0
2017-Aug-26 14:59N 44°44' E 037°47'0 0.0
2017-Aug-26 13:59N 44°44' E 037°47'0 0.0
2017-Aug-26 13:29N 44°44' E 037°47'0 0.0
2017-Aug-26 12:59N 44°44' E 037°47'0 0.0
2017-Aug-26 12:29N 44°44' E 037°47'0 0.0
2017-Aug-26 11:59N 44°44' E 037°47'0 0.0
2017-Aug-26 11:29N 44°44' E 037°47'0 0.0
2017-Aug-26 10:59N 44°44' E 037°47'0 0.0
2017-Aug-26 10:29N 44°44' E 037°47'0 0.0
2017-Aug-26 09:59N 44°44' E 037°47'0 0.0
2017-Aug-26 09:29N 44°44' E 037°47'0 0.0
2017-Aug-26 08:59N 44°44' E 037°47'0 0.0
2017-Aug-26 08:29N 44°44' E 037°47'0 0.0
2017-Aug-26 07:59N 44°44' E 037°47'0 0.0
2017-Aug-26 07:29N 44°44' E 037°47'  
Track history (hours):
 
Tides and Currents Weather Stations Pressure Air Temp Water Temp Dewpoint Dewpoint Depression Visibility Wind Speed Wind Dir Waves Ship Positions

Maersk Klaipeda

Last reported at 2017-Sep-05 07:04 UTC. Time now 2017-Sep-22 04:31 UTC.
Position N 35°55' E 032°44'.
Warning: this ship's position is 16 days out of date.

Length 300 m; draft 13.1 m.

Type: Ship (hazmat cat A). MMSI: 477728600.

Date/timePositionNaut miles runAvg speedWind from/ knotsBaromVisibWave heightAir tempDewpointWater temp
2017-Sep-05 07:04N 35°55' E 032°44'120.2
2017-Sep-05 07:01N 35°55' E 032°43'1020.3
2017-Sep-05 06:30N 35°55' E 032°30'1020.5
2017-Sep-05 06:00N 35°54' E 032°18'1020.5
2017-Sep-05 05:30N 35°54' E 032°05'1020.5
2017-Sep-05 05:01N 35°54' E 031°53'1020.7
2017-Sep-05 04:31N 35°54' E 031°40'1121.1
2017-Sep-05 04:01N 35°53' E 031°27'1121.1
2017-Sep-05 03:31N 35°53' E 031°14'1121.0
2017-Sep-05 03:01N 35°53' E 031°01'1021.0
2017-Sep-05 02:31N 35°53' E 030°48'1121.0
2017-Sep-05 02:01N 35°52' E 030°35'24418.7
2017-Sep-04 13:01N 37°28' E 025°56'020.8
2017-Sep-04 13:00N 37°28' E 025°56'248 8.1
2017-Sep-03 06:32N 40°55' E 028°51'117.0
2017-Sep-03 06:27N 40°56' E 028°53'613.6
2017-Sep-03 05:59N 40°60' E 028°59'611.4
2017-Sep-03 05:28N 41°05' E 029°03'511.1
2017-Sep-03 04:59N 41°10' E 029°04'5 9.4
2017-Sep-03 04:30N 41°14' E 029°08'7 8.0
2017-Sep-03 03:39N 41°19' E 029°02'6 1.3
2017-Sep-02 22:50N 41°23' E 028°56'1 1.4
2017-Sep-02 22:29N 41°23' E 028°55'3 5.9
2017-Sep-02 21:59N 41°24' E 028°52'0 0.6
2017-Sep-02 21:30N 41°25' E 028°52'0 0.7
2017-Sep-02 21:00N 41°25' E 028°52'0 0.7
2017-Sep-02 20:30N 41°25' E 028°53'0 0.6
2017-Sep-02 20:00N 41°25' E 028°53'0 0.7
2017-Sep-02 19:30N 41°24' E 028°54'0 0.7
2017-Sep-02 18:58N 41°25' E 028°54'1 2.8
2017-Sep-02 18:30N 41°26' E 028°55'10 8.1
2017-Sep-02 17:19N 41°33' E 029°04'620.0
2017-Sep-02 17:00N 41°39' E 029°04'1020.5
2017-Sep-02 16:30N 41°49' E 029°04'1020.2
2017-Sep-02 16:00N 41°59' E 029°04'1020.1
2017-Sep-02 15:30N 42°09' E 029°04'1019.9
2017-Sep-02 15:00N 42°19' E 029°04'1019.9
2017-Sep-02 14:30N 42°29' E 029°04'1019.9
2017-Sep-02 14:00N 42°39' E 029°03'1019.8
2017-Sep-02 13:30N 42°49' E 029°03'1019.8
2017-Sep-02 13:00N 42°59' E 029°03'1019.9
2017-Sep-02 12:30N 43°09' E 029°03'1020.0
2017-Sep-02 12:00N 43°19' E 029°03'1019.8
2017-Sep-02 11:30N 43°29' E 029°03'1019.6
2017-Sep-02 11:00N 43°39' E 029°03'1019.2
2017-Sep-02 10:30N 43°48' E 029°02'1019.5
2017-Sep-02 10:00N 43°56' E 028°53'918.7
2017-Sep-02 09:30N 44°03' E 028°44'5 0.2
2017-Sep-01 06:33N 44°06' E 028°40'0 0.2
2017-Sep-01 06:30N 44°06' E 028°40'1 1.4
2017-Sep-01 06:00N 44°06' E 028°41'2 4.4
2017-Sep-01 05:30N 44°05' E 028°43'4 7.5
2017-Sep-01 05:00N 44°02' E 028°47'5 9.0
2017-Sep-01 04:30N 43°60' E 028°52'4 8.5
2017-Sep-01 04:00N 44°01' E 028°57'0 0.6
2017-Sep-01 03:30N 44°01' E 028°58'0 0.4
2017-Sep-01 03:00N 44°01' E 028°58'0 0.4
2017-Sep-01 02:30N 44°01' E 028°58'0 0.8
2017-Sep-01 02:00N 44°01' E 028°59'0 0.8
2017-Sep-01 01:30N 44°01' E 028°59'0 0.7
2017-Sep-01 01:00N 44°01' E 028°60'0 0.6
2017-Sep-01 00:30N 44°00' E 029°00'0 0.2
2017-Sep-01 00:00N 44°00' E 029°00'0 0.7
2017-Aug-31 23:30N 44°00' E 029°01'1 2.8
2017-Aug-31 23:00N 44°01' E 029°02'4 9.0
2017-Aug-31 22:30N 44°04' E 029°07'5 9.8
2017-Aug-31 22:00N 44°07' E 029°12'510.0
2017-Aug-31 21:30N 44°10' E 029°18'5 9.8
2017-Aug-31 21:00N 44°12' E 029°24'5 9.8
2017-Aug-31 20:30N 44°15' E 029°30'133 9.8
2017-Aug-31 06:58N 46°13' E 030°57'1018.0
2017-Aug-31 06:24N 46°18' E 030°45'4 4.3
2017-Aug-31 05:29N 46°20' E 030°40'7 0.2
2017-Aug-29 16:32N 46°18' E 030°49'014.9
2017-Aug-29 16:30N 46°17' E 030°49'612.9
2017-Aug-29 16:00N 46°24' E 030°51'713.8
2017-Aug-29 15:30N 46°30' E 030°46'1 1.2
2017-Aug-29 15:00N 46°29' E 030°46'0 0.1
2017-Aug-29 14:22N 46°29' E 030°46'0 0.0
2017-Aug-29 13:55N 46°29' E 030°46'0 0.0
2017-Aug-29 13:28N 46°29' E 030°46'0 0.0
2017-Aug-29 12:58N 46°29' E 030°46'0 0.0
2017-Aug-29 12:25N 46°29' E 030°46'0 0.0
2017-Aug-29 11:28N 46°29' E 030°46'0 0.0
2017-Aug-29 10:55N 46°29' E 030°46'0 0.0
2017-Aug-29 10:04N 46°29' E 030°46'0 0.0
2017-Aug-29 09:55N 46°29' E 030°46'0 0.0
2017-Aug-29 08:46N 46°29' E 030°46'0 0.0
2017-Aug-29 07:43N 46°29' E 030°46'0 0.0
2017-Aug-29 07:25N 46°29' E 030°46'0 0.0
2017-Aug-29 06:07N 46°29' E 030°46'0 0.0
2017-Aug-29 05:43N 46°29' E 030°46'0 0.0
2017-Aug-29 05:28N 46°29' E 030°46'0 0.0
2017-Aug-29 04:52N 46°29' E 030°46'0 0.0
2017-Aug-29 04:28N 46°29' E 030°46'0 0.0
2017-Aug-29 03:58N 46°29' E 030°46'0 0.7
2017-Aug-29 03:30N 46°30' E 030°46'2 4.2
2017-Aug-29 03:00N 46°29' E 030°49'3 6.0
2017-Aug-29 02:30N 46°27' E 030°51'1015.4
2017-Aug-29 01:53N 46°18' E 030°56'29215.9
2017-Aug-28 07:28N 44°24' E 037°19'919.1
2017-Aug-28 07:00N 44°28' E 037°30'1019.4
2017-Aug-28 06:31N 44°32' E 037°42'816.9
2017-Aug-28 06:00N 44°39' E 037°50'4 8.6
2017-Aug-28 05:30N 44°43' E 037°48'1 2.0
2017-Aug-28 05:00N 44°44' E 037°47'0 0.0
2017-Aug-28 04:30N 44°44' E 037°47'0 0.0
2017-Aug-28 04:00N 44°44' E 037°47'0 0.0
2017-Aug-28 03:30N 44°44' E 037°47'0 0.0
2017-Aug-28 03:00N 44°44' E 037°47'0 0.0
2017-Aug-28 02:30N 44°44' E 037°47'0 0.0
2017-Aug-28 02:00N 44°44' E 037°47'0 0.0
2017-Aug-28 01:30N 44°44' E 037°47'0 0.0
2017-Aug-28 01:00N 44°44' E 037°47'0 0.0
2017-Aug-28 00:30N 44°44' E 037°47'0 0.0
2017-Aug-28 00:00N 44°44' E 037°47'0 0.0
2017-Aug-27 23:30N 44°44' E 037°47'0 0.0
2017-Aug-27 23:00N 44°44' E 037°47'0 0.0
2017-Aug-27 22:30N 44°44' E 037°47'0 0.0
2017-Aug-27 22:00N 44°44' E 037°47'0 0.0
2017-Aug-27 21:30N 44°44' E 037°47'0 0.0
2017-Aug-27 21:00N 44°44' E 037°47'0 0.0
2017-Aug-27 20:30N 44°44' E 037°47'0 0.0
2017-Aug-27 20:00N 44°44' E 037°47'0 0.0
2017-Aug-27 19:30N 44°44' E 037°47'0 0.0
2017-Aug-27 19:00N 44°44' E 037°47'0 0.0
2017-Aug-27 18:30N 44°44' E 037°47'0 0.0
2017-Aug-27 18:00N 44°44' E 037°47'0 0.0
2017-Aug-27 17:30N 44°44' E 037°47'0 0.0
2017-Aug-27 17:00N 44°44' E 037°47'0 0.0
2017-Aug-27 16:30N 44°44' E 037°47'0 0.0
2017-Aug-27 16:00N 44°44' E 037°47'0 0.0
2017-Aug-27 15:12N 44°44' E 037°47'0 0.0
2017-Aug-27 15:00N 44°44' E 037°47'0 0.0
2017-Aug-27 14:30N 44°44' E 037°47'0 0.0
2017-Aug-27 14:00N 44°44' E 037°47'0 0.0
2017-Aug-27 13:30N 44°44' E 037°47'0 0.0
2017-Aug-27 13:00N 44°44' E 037°47'0 0.0
2017-Aug-27 12:30N 44°44' E 037°47'0 0.0
2017-Aug-27 12:00N 44°44' E 037°47'0 0.0
2017-Aug-27 11:30N 44°44' E 037°47'0 0.0
2017-Aug-27 11:00N 44°44' E 037°47'0 0.0
2017-Aug-27 10:30N 44°44' E 037°47'0 0.0
2017-Aug-27 10:00N 44°44' E 037°47'0 0.0
2017-Aug-27 09:30N 44°44' E 037°47'0 0.0
2017-Aug-27 09:00N 44°44' E 037°47'0 0.0
2017-Aug-27 08:30N 44°44' E 037°47'0 0.0
2017-Aug-27 08:00N 44°44' E 037°47'0 0.0
2017-Aug-27 07:30N 44°44' E 037°47'0 0.0
2017-Aug-27 07:00N 44°44' E 037°47'0 0.0
2017-Aug-27 06:30N 44°44' E 037°47'0 0.0
2017-Aug-27 06:00N 44°44' E 037°47'0 0.0
2017-Aug-27 05:30N 44°44' E 037°47'0 0.0
2017-Aug-27 05:00N 44°44' E 037°47'0 0.0
2017-Aug-27 04:30N 44°44' E 037°47'0 0.0
2017-Aug-27 04:00N 44°44' E 037°47'0 0.0
2017-Aug-27 03:29N 44°44' E 037°47'0 0.0
2017-Aug-27 02:59N 44°44' E 037°47'0 0.0
2017-Aug-27 02:29N 44°44' E 037°47'0 0.0
2017-Aug-27 01:59N 44°44' E 037°47'0 0.0
2017-Aug-27 01:29N 44°44' E 037°47'0 0.0
2017-Aug-27 00:59N 44°44' E 037°47'0 0.0
2017-Aug-27 00:29N 44°44' E 037°47'0 0.0
2017-Aug-26 23:59N 44°44' E 037°47'0 0.0
2017-Aug-26 23:29N 44°44' E 037°47'0 0.0
2017-Aug-26 22:59N 44°44' E 037°47'0 0.0
2017-Aug-26 22:29N 44°44' E 037°47'0 0.0
2017-Aug-26 21:59N 44°44' E 037°47'0 0.0
2017-Aug-26 21:29N 44°44' E 037°47'0 0.0
2017-Aug-26 20:59N 44°44' E 037°47'0 0.0
2017-Aug-26 20:29N 44°44' E 037°47'0 0.0
2017-Aug-26 19:59N 44°44' E 037°47'0 0.0
2017-Aug-26 19:29N 44°44' E 037°47'0 0.0
2017-Aug-26 18:59N 44°44' E 037°47'0 0.0
2017-Aug-26 18:29N 44°44' E 037°47'0 0.0
2017-Aug-26 17:59N 44°44' E 037°47'0 0.0
2017-Aug-26 17:29N 44°44' E 037°47'0 0.0
2017-Aug-26 16:59N 44°44' E 037°47'0 0.0
2017-Aug-26 16:29N 44°44' E 037°47'0 0.0
2017-Aug-26 15:59N 44°44' E 037°47'0 0.0
2017-Aug-26 15:29N 44°44' E 037°47'0 0.0
2017-Aug-26 14:59N 44°44' E 037°47'0 0.0
2017-Aug-26 13:59N 44°44' E 037°47'0 0.0
2017-Aug-26 13:29N 44°44' E 037°47'0 0.0
2017-Aug-26 12:59N 44°44' E 037°47'0 0.0
2017-Aug-26 12:29N 44°44' E 037°47'0 0.0
2017-Aug-26 11:59N 44°44' E 037°47'0 0.0
2017-Aug-26 11:29N 44°44' E 037°47'0 0.0
2017-Aug-26 10:59N 44°44' E 037°47'0 0.0
2017-Aug-26 10:29N 44°44' E 037°47'0 0.0
2017-Aug-26 09:59N 44°44' E 037°47'0 0.0
2017-Aug-26 09:29N 44°44' E 037°47'0 0.0
2017-Aug-26 08:59N 44°44' E 037°47'0 0.0
2017-Aug-26 08:29N 44°44' E 037°47'0 0.0
2017-Aug-26 07:59N 44°44' E 037°47'0 0.0
2017-Aug-26 07:29N 44°44' E 037°47'  

Dump ship's entire track history